Ilfracombe, United Kingdom
Current Conditions -  °F | °C
As of 4:50 PM on Friday 19 Dec 2014 (Local Time) from EGDX Reporting Station
Few Clouds Few Clouds  
Wind Chill: 39°   Ceiling: Unl
Heat Index: 46°   Visibility: 6mi
Dew Point: 39°   Wind: 17mph
Humidity: 76%   Direction: 300°WNW
Pressure: 30.15"   Gusts: NA
Location:  51.21°N, 4.11°W
Report Text: EGDX 191650Z AUTO 30015KT 9999 FEW049/// 08/04 Q1021
Loading
Personal Weather Stations






























Interactive Weather Map New forecast layout! Learn more

10-Day Weather Forecast

Advertisements
Track Severe Weather on mobile